sensor_id;sensor_type;location;lat;lon;timestamp;P1;durP1;ratioP1;P2;durP2;ratioP2
2872;SDS011;1444;49.166;7.312;2022-09-12T00:01:06;16.50;;;5.77;;
2872;SDS011;1444;49.166;7.312;2022-09-12T00:03:35;21.10;;;7.73;;
2872;SDS011;1444;49.166;7.312;2022-09-12T00:06:07;11.37;;;4.97;;
2872;SDS011;1444;49.166;7.312;2022-09-12T00:08:36;12.43;;;5.63;;
2872;SDS011;1444;49.166;7.312;2022-09-12T00:11:04;10.67;;;4.87;;
2872;SDS011;1444;49.166;7.312;2022-09-12T00:13:32;19.40;;;5.07;;
2872;SDS011;1444;49.166;7.312;2022-09-12T00:15:59;14.10;;;3.60;;
2872;SDS011;1444;49.166;7.312;2022-09-12T00:18:26;15.77;;;5.83;;
2872;SDS011;1444;49.166;7.312;2022-09-12T00:20:53;10.60;;;4.53;;
2872;SDS011;1444;49.166;7.312;2022-09-12T00:23:21;10.80;;;5.87;;
2872;SDS011;1444;49.166;7.312;2022-09-12T00:25:48;14.63;;;4.77;;
2872;SDS011;1444;49.166;7.312;2022-09-12T00:28:15;18.03;;;4.97;;
2872;SDS011;1444;49.166;7.312;2022-09-12T00:30:43;36.63;;;5.70;;
2872;SDS011;1444;49.166;7.312;2022-09-12T00:33:12;22.57;;;5.63;;
2872;SDS011;1444;49.166;7.312;2022-09-12T00:35:42;18.20;;;5.37;;
2872;SDS011;1444;49.166;7.312;2022-09-12T00:38:10;13.93;;;4.63;;
2872;SDS011;1444;49.166;7.312;2022-09-12T00:40:39;15.13;;;7.60;;
2872;SDS011;1444;49.166;7.312;2022-09-12T00:43:09;11.13;;;5.00;;
2872;SDS011;1444;49.166;7.312;2022-09-12T00:45:39;17.77;;;5.60;;
2872;SDS011;1444;49.166;7.312;2022-09-12T00:48:07;11.30;;;4.63;;
2872;SDS011;1444;49.166;7.312;2022-09-12T00:50:47;21.70;;;4.50;;
2872;SDS011;1444;49.166;7.312;2022-09-12T00:53:15;11.60;;;4.37;;
2872;SDS011;1444;49.166;7.312;2022-09-12T00:55:45;5.90;;;3.13;;
2872;SDS011;1444;49.166;7.312;2022-09-12T00:58:13;9.93;;;3.93;;
2872;SDS011;1444;49.166;7.312;2022-09-12T01:00:42;14.43;;;4.40;;
2872;SDS011;1444;49.166;7.312;2022-09-12T01:03:10;18.17;;;4.70;;
2872;SDS011;1444;49.166;7.312;2022-09-12T01:05:41;20.17;;;5.47;;
2872;SDS011;1444;49.166;7.312;2022-09-12T01:08:15;17.43;;;4.70;;
2872;SDS011;1444;49.166;7.312;2022-09-12T01:10:44;19.03;;;4.97;;
2872;SDS011;1444;49.166;7.312;2022-09-12T01:13:11;29.97;;;5.37;;
2872;SDS011;1444;49.166;7.312;2022-09-12T01:15:38;21.60;;;5.20;;
2872;SDS011;1444;49.166;7.312;2022-09-12T01:18:09;26.67;;;4.87;;
2872;SDS011;1444;49.166;7.312;2022-09-12T01:20:47;21.07;;;5.20;;
2872;SDS011;1444;49.166;7.312;2022-09-12T01:23:38;18.97;;;5.73;;
2872;SDS011;1444;49.166;7.312;2022-09-12T01:26:36;16.80;;;3.93;;
2872;SDS011;1444;49.166;7.312;2022-09-12T01:29:28;14.07;;;4.33;;
2872;SDS011;1444;49.166;7.312;2022-09-12T01:32:31;12.50;;;4.77;;
2872;SDS011;1444;49.166;7.312;2022-09-12T01:35:09;15.93;;;4.50;;
2872;SDS011;1444;49.166;7.312;2022-09-12T01:37:49;9.10;;;4.60;;
2872;SDS011;1444;49.166;7.312;2022-09-12T01:40:25;10.83;;;3.87;;
2872;SDS011;1444;49.166;7.312;2022-09-12T01:43:01;14.63;;;5.17;;
2872;SDS011;1444;49.166;7.312;2022-09-12T01:45:31;17.50;;;4.57;;
2872;SDS011;1444;49.166;7.312;2022-09-12T01:48:04;19.17;;;4.80;;
2872;SDS011;1444;49.166;7.312;2022-09-12T01:50:38;20.57;;;4.63;;
2872;SDS011;1444;49.166;7.312;2022-09-12T01:53:12;13.57;;;4.70;;
2872;SDS011;1444;49.166;7.312;2022-09-12T01:55:43;19.93;;;5.80;;
2872;SDS011;1444;49.166;7.312;2022-09-12T01:58:14;10.30;;;4.00;;
2872;SDS011;1444;49.166;7.312;2022-09-12T02:00:47;20.87;;;6.20;;
2872;SDS011;1444;49.166;7.312;2022-09-12T02:03:17;20.30;;;5.53;;
2872;SDS011;1444;49.166;7.312;2022-09-12T02:05:50;17.90;;;4.80;;
2872;SDS011;1444;49.166;7.312;2022-09-12T02:08:20;32.30;;;5.43;;
2872;SDS011;1444;49.166;7.312;2022-09-12T02:10:53;12.27;;;5.63;;
2872;SDS011;1444;49.166;7.312;2022-09-12T02:13:22;20.97;;;4.27;;
2872;SDS011;1444;49.166;7.312;2022-09-12T02:15:55;17.20;;;4.97;;
2872;SDS011;1444;49.166;7.312;2022-09-12T02:18:29;15.17;;;4.93;;
2872;SDS011;1444;49.166;7.312;2022-09-12T02:20:59;28.17;;;5.80;;
2872;SDS011;1444;49.166;7.312;2022-09-12T02:23:29;21.10;;;6.00;;
2872;SDS011;1444;49.166;7.312;2022-09-12T02:25:59;15.53;;;5.67;;
2872;SDS011;1444;49.166;7.312;2022-09-12T02:28:31;13.93;;;5.40;;
2872;SDS011;1444;49.166;7.312;2022-09-12T02:31:05;18.53;;;4.87;;
2872;SDS011;1444;49.166;7.312;2022-09-12T02:33:40;17.93;;;5.13;;
2872;SDS011;1444;49.166;7.312;2022-09-12T02:36:14;11.77;;;4.80;;
2872;SDS011;1444;49.166;7.312;2022-09-12T02:38:51;20.07;;;5.00;;
2872;SDS011;1444;49.166;7.312;2022-09-12T02:41:20;13.53;;;5.70;;
2872;SDS011;1444;49.166;7.312;2022-09-12T02:43:48;16.97;;;6.53;;
2872;SDS011;1444;49.166;7.312;2022-09-12T02:46:17;22.47;;;5.00;;
2872;SDS011;1444;49.166;7.312;2022-09-12T02:48:48;11.23;;;5.37;;
2872;SDS011;1444;49.166;7.312;2022-09-12T02:51:15;20.17;;;5.20;;
2872;SDS011;1444;49.166;7.312;2022-09-12T02:53:43;10.77;;;4.80;;
2872;SDS011;1444;49.166;7.312;2022-09-12T02:56:11;8.17;;;4.40;;
2872;SDS011;1444;49.166;7.312;2022-09-12T02:58:39;16.47;;;5.10;;
2872;SDS011;1444;49.166;7.312;2022-09-12T03:01:08;11.60;;;4.07;;
2872;SDS011;1444;49.166;7.312;2022-09-12T03:06:47;21.43;;;5.70;;
2872;SDS011;1444;49.166;7.312;2022-09-12T03:09:17;17.60;;;5.60;;
2872;SDS011;1444;49.166;7.312;2022-09-12T03:11:58;9.90;;;4.37;;
2872;SDS011;1444;49.166;7.312;2022-09-12T03:14:41;19.37;;;6.47;;
2872;SDS011;1444;49.166;7.312;2022-09-12T03:17:26;11.43;;;5.30;;
2872;SDS011;1444;49.166;7.312;2022-09-12T03:20:08;14.13;;;5.30;;
2872;SDS011;1444;49.166;7.312;2022-09-12T03:22:39;15.03;;;5.53;;
2872;SDS011;1444;49.166;7.312;2022-09-12T03:25:11;20.60;;;4.47;;
2872;SDS011;1444;49.166;7.312;2022-09-12T03:27:43;9.87;;;5.10;;
2872;SDS011;1444;49.166;7.312;2022-09-12T03:30:14;9.20;;;4.30;;
2872;SDS011;1444;49.166;7.312;2022-09-12T03:32:42;12.43;;;5.67;;
2872;SDS011;1444;49.166;7.312;2022-09-12T03:35:11;18.97;;;5.30;;
2872;SDS011;1444;49.166;7.312;2022-09-12T03:37:39;15.27;;;4.70;;
2872;SDS011;1444;49.166;7.312;2022-09-12T03:40:07;13.50;;;5.43;;
2872;SDS011;1444;49.166;7.312;2022-09-12T03:42:35;13.43;;;5.50;;
2872;SDS011;1444;49.166;7.312;2022-09-12T03:45:03;16.93;;;5.33;;
2872;SDS011;1444;49.166;7.312;2022-09-12T03:47:30;11.60;;;5.20;;
2872;SDS011;1444;49.166;7.312;2022-09-12T03:49:57;7.90;;;4.07;;
2872;SDS011;1444;49.166;7.312;2022-09-12T03:52:25;19.60;;;5.90;;
2872;SDS011;1444;49.166;7.312;2022-09-12T03:54:52;17.50;;;5.27;;
2872;SDS011;1444;49.166;7.312;2022-09-12T03:57:19;19.13;;;4.87;;
2872;SDS011;1444;49.166;7.312;2022-09-12T03:59:47;21.97;;;5.30;;
2872;SDS011;1444;49.166;7.312;2022-09-12T04:02:14;10.13;;;3.67;;
2872;SDS011;1444;49.166;7.312;2022-09-12T04:04:41;14.20;;;4.60;;
2872;SDS011;1444;49.166;7.312;2022-09-12T04:07:08;21.20;;;5.03;;
2872;SDS011;1444;49.166;7.312;2022-09-12T04:09:37;11.70;;;4.20;;
2872;SDS011;1444;49.166;7.312;2022-09-12T04:12:05;20.40;;;5.00;;
2872;SDS011;1444;49.166;7.312;2022-09-12T04:14:32;21.50;;;5.67;;
2872;SDS011;1444;49.166;7.312;2022-09-12T04:16:59;22.17;;;5.40;;
2872;SDS011;1444;49.166;7.312;2022-09-12T04:19:26;14.47;;;5.30;;
2872;SDS011;1444;49.166;7.312;2022-09-12T04:21:53;17.87;;;5.37;;
2872;SDS011;1444;49.166;7.312;2022-09-12T04:24:20;12.00;;;4.80;;
2872;SDS011;1444;49.166;7.312;2022-09-12T04:26:48;17.30;;;5.13;;
2872;SDS011;1444;49.166;7.312;2022-09-12T04:29:15;24.67;;;5.97;;
2872;SDS011;1444;49.166;7.312;2022-09-12T04:31:42;7.87;;;4.20;;
2872;SDS011;1444;49.166;7.312;2022-09-12T04:34:09;12.47;;;4.47;;
2872;SDS011;1444;49.166;7.312;2022-09-12T04:36:36;20.37;;;5.90;;
2872;SDS011;1444;49.166;7.312;2022-09-12T04:39:03;8.97;;;4.33;;
2872;SDS011;1444;49.166;7.312;2022-09-12T04:41:32;13.77;;;4.87;;
2872;SDS011;1444;49.166;7.312;2022-09-12T04:44:01;11.03;;;4.63;;
2872;SDS011;1444;49.166;7.312;2022-09-12T04:46:30;10.60;;;4.87;;
2872;SDS011;1444;49.166;7.312;2022-09-12T04:48:58;17.67;;;4.53;;
2872;SDS011;1444;49.166;7.312;2022-09-12T04:51:26;11.60;;;4.50;;
2872;SDS011;1444;49.166;7.312;2022-09-12T04:53:55;13.23;;;4.20;;
2872;SDS011;1444;49.166;7.312;2022-09-12T04:56:23;21.50;;;5.20;;
2872;SDS011;1444;49.166;7.312;2022-09-12T04:58:50;15.60;;;4.40;;
2872;SDS011;1444;49.166;7.312;2022-09-12T05:01:19;10.20;;;4.47;;
2872;SDS011;1444;49.166;7.312;2022-09-12T05:03:47;15.93;;;4.63;;
2872;SDS011;1444;49.166;7.312;2022-09-12T05:06:15;20.70;;;5.30;;
2872;SDS011;1444;49.166;7.312;2022-09-12T05:08:44;9.90;;;4.43;;
2872;SDS011;1444;49.166;7.312;2022-09-12T05:11:12;25.63;;;5.37;;
2872;SDS011;1444;49.166;7.312;2022-09-12T05:13:40;11.50;;;5.17;;
2872;SDS011;1444;49.166;7.312;2022-09-12T05:16:08;9.90;;;5.17;;
2872;SDS011;1444;49.166;7.312;2022-09-12T05:18:37;22.63;;;6.80;;
2872;SDS011;1444;49.166;7.312;2022-09-12T05:21:05;8.83;;;5.17;;
2872;SDS011;1444;49.166;7.312;2022-09-12T05:23:33;11.10;;;5.50;;
2872;SDS011;1444;49.166;7.312;2022-09-12T05:26:00;10.67;;;5.27;;
2872;SDS011;1444;49.166;7.312;2022-09-12T05:28:29;15.13;;;5.10;;
2872;SDS011;1444;49.166;7.312;2022-09-12T05:31:00;16.33;;;4.90;;
2872;SDS011;1444;49.166;7.312;2022-09-12T05:33:27;16.43;;;5.13;;
2872;SDS011;1444;49.166;7.312;2022-09-12T05:35:56;23.53;;;5.50;;
2872;SDS011;1444;49.166;7.312;2022-09-12T05:38:23;20.03;;;6.00;;
2872;SDS011;1444;49.166;7.312;2022-09-12T05:40:50;13.73;;;4.80;;
2872;SDS011;1444;49.166;7.312;2022-09-12T05:43:17;10.23;;;4.90;;
2872;SDS011;1444;49.166;7.312;2022-09-12T05:45:44;17.57;;;4.97;;
2872;SDS011;1444;49.166;7.312;2022-09-12T05:48:11;12.13;;;5.70;;
2872;SDS011;1444;49.166;7.312;2022-09-12T05:50:37;17.60;;;4.67;;
2872;SDS011;1444;49.166;7.312;2022-09-12T05:53:07;20.00;;;5.00;;
2872;SDS011;1444;49.166;7.312;2022-09-12T05:55:34;20.00;;;6.10;;
2872;SDS011;1444;49.166;7.312;2022-09-12T05:58:02;17.53;;;5.57;;
2872;SDS011;1444;49.166;7.312;2022-09-12T06:00:28;22.37;;;5.40;;
2872;SDS011;1444;49.166;7.312;2022-09-12T06:02:55;14.57;;;5.20;;
2872;SDS011;1444;49.166;7.312;2022-09-12T06:05:22;8.90;;;4.50;;
2872;SDS011;1444;49.166;7.312;2022-09-12T06:07:50;20.27;;;5.80;;
2872;SDS011;1444;49.166;7.312;2022-09-12T06:10:18;11.20;;;5.03;;
2872;SDS011;1444;49.166;7.312;2022-09-12T06:12:47;11.30;;;4.47;;
2872;SDS011;1444;49.166;7.312;2022-09-12T06:15:14;16.87;;;5.30;;
2872;SDS011;1444;49.166;7.312;2022-09-12T06:17:42;18.70;;;5.60;;
2872;SDS011;1444;49.166;7.312;2022-09-12T06:20:08;22.70;;;6.23;;
2872;SDS011;1444;49.166;7.312;2022-09-12T06:22:36;26.27;;;6.77;;
2872;SDS011;1444;49.166;7.312;2022-09-12T06:25:03;23.97;;;6.80;;
2872;SDS011;1444;49.166;7.312;2022-09-12T06:27:32;14.40;;;6.30;;
2872;SDS011;1444;49.166;7.312;2022-09-12T06:29:59;29.27;;;7.00;;
2872;SDS011;1444;49.166;7.312;2022-09-12T06:32:28;25.87;;;7.90;;
2872;SDS011;1444;49.166;7.312;2022-09-12T06:34:55;17.97;;;6.73;;
2872;SDS011;1444;49.166;7.312;2022-09-12T06:37:22;14.37;;;5.60;;
2872;SDS011;1444;49.166;7.312;2022-09-12T06:39:49;18.70;;;6.53;;
2872;SDS011;1444;49.166;7.312;2022-09-12T06:42:17;15.23;;;6.70;;
2872;SDS011;1444;49.166;7.312;2022-09-12T06:44:45;9.67;;;5.70;;
2872;SDS011;1444;49.166;7.312;2022-09-12T06:47:12;15.53;;;5.90;;
2872;SDS011;1444;49.166;7.312;2022-09-12T06:49:39;17.57;;;5.77;;
2872;SDS011;1444;49.166;7.312;2022-09-12T06:52:06;11.83;;;5.17;;
2872;SDS011;1444;49.166;7.312;2022-09-12T06:54:33;9.03;;;5.30;;
2872;SDS011;1444;49.166;7.312;2022-09-12T06:57:00;12.53;;;5.37;;
2872;SDS011;1444;49.166;7.312;2022-09-12T06:59:27;8.93;;;5.80;;
2872;SDS011;1444;49.166;7.312;2022-09-12T07:01:55;10.30;;;5.13;;
2872;SDS011;1444;49.166;7.312;2022-09-12T07:04:51;11.80;;;5.93;;
2872;SDS011;1444;49.166;7.312;2022-09-12T07:07:17;17.13;;;6.87;;
2872;SDS011;1444;49.166;7.312;2022-09-12T07:09:44;18.80;;;6.67;;
2872;SDS011;1444;49.166;7.312;2022-09-12T07:12:11;19.73;;;7.23;;
2872;SDS011;1444;49.166;7.312;2022-09-12T07:14:38;27.83;;;8.43;;
2872;SDS011;1444;49.166;7.312;2022-09-12T07:17:06;32.33;;;7.73;;
2872;SDS011;1444;49.166;7.312;2022-09-12T07:19:33;15.47;;;8.30;;
2872;SDS011;1444;49.166;7.312;2022-09-12T07:22:00;22.03;;;7.30;;
2872;SDS011;1444;49.166;7.312;2022-09-12T07:24:27;29.63;;;8.17;;
2872;SDS011;1444;49.166;7.312;2022-09-12T07:26:53;21.50;;;7.80;;
2872;SDS011;1444;49.166;7.312;2022-09-12T07:29:20;9.20;;;7.27;;
2872;SDS011;1444;49.166;7.312;2022-09-12T07:31:47;25.23;;;7.40;;
2872;SDS011;1444;49.166;7.312;2022-09-12T07:34:15;13.20;;;7.50;;
2872;SDS011;1444;49.166;7.312;2022-09-12T07:36:41;27.40;;;7.17;;
2872;SDS011;1444;49.166;7.312;2022-09-12T07:39:08;17.13;;;7.50;;
2872;SDS011;1444;49.166;7.312;2022-09-12T07:41:35;16.97;;;8.10;;
2872;SDS011;1444;49.166;7.312;2022-09-12T07:44:02;18.07;;;6.60;;
2872;SDS011;1444;49.166;7.312;2022-09-12T07:46:30;16.03;;;7.27;;
2872;SDS011;1444;49.166;7.312;2022-09-12T07:48:59;19.20;;;7.37;;
2872;SDS011;1444;49.166;7.312;2022-09-12T07:51:28;19.33;;;8.07;;
2872;SDS011;1444;49.166;7.312;2022-09-12T07:53:56;30.57;;;8.63;;
2872;SDS011;1444;49.166;7.312;2022-09-12T07:56:23;12.73;;;7.63;;
2872;SDS011;1444;49.166;7.312;2022-09-12T07:58:51;14.40;;;8.07;;
2872;SDS011;1444;49.166;7.312;2022-09-12T08:01:18;29.33;;;9.80;;
2872;SDS011;1444;49.166;7.312;2022-09-12T08:03:47;21.03;;;9.17;;
2872;SDS011;1444;49.166;7.312;2022-09-12T08:06:16;13.53;;;7.17;;
2872;SDS011;1444;49.166;7.312;2022-09-12T08:08:46;20.00;;;7.70;;
2872;SDS011;1444;49.166;7.312;2022-09-12T08:11:14;16.17;;;8.17;;
2872;SDS011;1444;49.166;7.312;2022-09-12T08:13:42;20.70;;;8.97;;
2872;SDS011;1444;49.166;7.312;2022-09-12T08:16:11;18.03;;;7.93;;
2872;SDS011;1444;49.166;7.312;2022-09-12T08:18:39;23.97;;;8.47;;
2872;SDS011;1444;49.166;7.312;2022-09-12T08:21:07;19.90;;;7.83;;
2872;SDS011;1444;49.166;7.312;2022-09-12T08:23:36;16.67;;;7.67;;
2872;SDS011;1444;49.166;7.312;2022-09-12T08:26:05;17.20;;;8.50;;
2872;SDS011;1444;49.166;7.312;2022-09-12T08:28:32;28.97;;;7.97;;
2872;SDS011;1444;49.166;7.312;2022-09-12T08:31:00;12.13;;;6.27;;
2872;SDS011;1444;49.166;7.312;2022-09-12T08:33:28;12.40;;;6.83;;
2872;SDS011;1444;49.166;7.312;2022-09-12T08:36:01;14.50;;;7.17;;
2872;SDS011;1444;49.166;7.312;2022-09-12T08:38:29;13.33;;;5.90;;
2872;SDS011;1444;49.166;7.312;2022-09-12T08:40:58;15.33;;;6.33;;
2872;SDS011;1444;49.166;7.312;2022-09-12T08:43:34;26.00;;;6.90;;
2872;SDS011;1444;49.166;7.312;2022-09-12T08:46:16;23.70;;;6.90;;
2872;SDS011;1444;49.166;7.312;2022-09-12T08:48:46;16.03;;;5.40;;
2872;SDS011;1444;49.166;7.312;2022-09-12T08:51:14;11.30;;;6.37;;
2872;SDS011;1444;49.166;7.312;2022-09-12T08:53:42;21.53;;;6.17;;
2872;SDS011;1444;49.166;7.312;2022-09-12T08:56:11;13.20;;;5.60;;
2872;SDS011;1444;49.166;7.312;2022-09-12T08:58:40;13.23;;;5.47;;
2872;SDS011;1444;49.166;7.312;2022-09-12T09:01:09;24.80;;;6.07;;
2872;SDS011;1444;49.166;7.312;2022-09-12T09:03:46;27.60;;;8.10;;
2872;SDS011;1444;49.166;7.312;2022-09-12T09:06:28;16.70;;;5.20;;
2872;SDS011;1444;49.166;7.312;2022-09-12T09:09:03;11.40;;;5.40;;
2872;SDS011;1444;49.166;7.312;2022-09-12T09:18:04;19.57;;;7.10;;
2872;SDS011;1444;49.166;7.312;2022-09-12T09:20:39;18.67;;;6.40;;
2872;SDS011;1444;49.166;7.312;2022-09-12T09:23:09;15.93;;;4.93;;
2872;SDS011;1444;49.166;7.312;2022-09-12T09:25:41;9.83;;;4.10;;
2872;SDS011;1444;49.166;7.312;2022-09-12T09:28:11;8.90;;;3.90;;
2872;SDS011;1444;49.166;7.312;2022-09-12T09:30:40;10.20;;;4.13;;
2872;SDS011;1444;49.166;7.312;2022-09-12T09:33:12;20.83;;;5.00;;
2872;SDS011;1444;49.166;7.312;2022-09-12T09:35:45;18.00;;;4.80;;
2872;SDS011;1444;49.166;7.312;2022-09-12T09:38:17;3.87;;;3.03;;
2872;SDS011;1444;49.166;7.312;2022-09-12T09:40:51;23.77;;;4.97;;
2872;SDS011;1444;49.166;7.312;2022-09-12T09:43:28;11.90;;;4.50;;
2872;SDS011;1444;49.166;7.312;2022-09-12T09:45:56;8.43;;;3.80;;
2872;SDS011;1444;49.166;7.312;2022-09-12T09:48:25;21.47;;;5.37;;
2872;SDS011;1444;49.166;7.312;2022-09-12T09:50:56;13.57;;;3.63;;
2872;SDS011;1444;49.166;7.312;2022-09-12T09:53:27;7.00;;;3.80;;
2872;SDS011;1444;49.166;7.312;2022-09-12T09:56:02;6.73;;;3.87;;
2872;SDS011;1444;49.166;7.312;2022-09-12T09:58:34;14.83;;;4.70;;
2872;SDS011;1444;49.166;7.312;2022-09-12T10:01:02;22.70;;;4.30;;
2872;SDS011;1444;49.166;7.312;2022-09-12T10:03:32;9.93;;;4.40;;
2872;SDS011;1444;49.166;7.312;2022-09-12T10:06:00;16.90;;;4.80;;
2872;SDS011;1444;49.166;7.312;2022-09-12T10:08:32;7.10;;;5.20;;
2872;SDS011;1444;49.166;7.312;2022-09-12T10:11:01;17.30;;;5.23;;
2872;SDS011;1444;49.166;7.312;2022-09-12T10:13:32;22.43;;;5.53;;
2872;SDS011;1444;49.166;7.312;2022-09-12T10:16:00;20.53;;;5.80;;
2872;SDS011;1444;49.166;7.312;2022-09-12T10:18:36;20.10;;;5.37;;
2872;SDS011;1444;49.166;7.312;2022-09-12T10:21:14;10.13;;;3.53;;
2872;SDS011;1444;49.166;7.312;2022-09-12T10:23:46;12.13;;;5.47;;
2872;SDS011;1444;49.166;7.312;2022-09-12T10:26:16;25.63;;;5.60;;
2872;SDS011;1444;49.166;7.312;2022-09-12T10:28:46;9.27;;;3.73;;
2872;SDS011;1444;49.166;7.312;2022-09-12T10:31:21;29.90;;;4.67;;
2872;SDS011;1444;49.166;7.312;2022-09-12T10:33:54;3.50;;;3.20;;
2872;SDS011;1444;49.166;7.312;2022-09-12T10:36:23;9.80;;;4.13;;
2872;SDS011;1444;49.166;7.312;2022-09-12T10:38:51;3.03;;;2.83;;
2872;SDS011;1444;49.166;7.312;2022-09-12T10:41:20;8.93;;;3.20;;
2872;SDS011;1444;49.166;7.312;2022-09-12T10:43:47;9.40;;;3.53;;
2872;SDS011;1444;49.166;7.312;2022-09-12T10:46:22;10.50;;;3.50;;
2872;SDS011;1444;49.166;7.312;2022-09-12T10:48:50;9.50;;;2.83;;
2872;SDS011;1444;49.166;7.312;2022-09-12T10:51:38;2.80;;;2.60;;
2872;SDS011;1444;49.166;7.312;2022-09-12T10:54:06;18.87;;;3.27;;
2872;SDS011;1444;49.166;7.312;2022-09-12T10:56:37;9.63;;;2.60;;
2872;SDS011;1444;49.166;7.312;2022-09-12T10:59:14;7.07;;;2.43;;
2872;SDS011;1444;49.166;7.312;2022-09-12T11:01:52;7.93;;;2.30;;
2872;SDS011;1444;49.166;7.312;2022-09-12T11:04:28;2.33;;;2.13;;
2872;SDS011;1444;49.166;7.312;2022-09-12T11:07:19;10.57;;;2.37;;
2872;SDS011;1444;49.166;7.312;2022-09-12T11:09:57;6.20;;;2.17;;
2872;SDS011;1444;49.166;7.312;2022-09-12T11:12:30;11.63;;;2.00;;
2872;SDS011;1444;49.166;7.312;2022-09-12T11:15:07;7.80;;;1.80;;
2872;SDS011;1444;49.166;7.312;2022-09-12T11:17:43;10.70;;;2.47;;
2872;SDS011;1444;49.166;7.312;2022-09-12T11:23:11;10.93;;;2.43;;
2872;SDS011;1444;49.166;7.312;2022-09-12T11:25:54;17.53;;;2.57;;
2872;SDS011;1444;49.166;7.312;2022-09-12T11:28:30;4.70;;;1.97;;
2872;SDS011;1444;49.166;7.312;2022-09-12T11:31:09;9.40;;;2.40;;
2872;SDS011;1444;49.166;7.312;2022-09-12T11:33:45;13.47;;;3.17;;
2872;SDS011;1444;49.166;7.312;2022-09-12T11:36:20;6.93;;;2.43;;
2872;SDS011;1444;49.166;7.312;2022-09-12T11:38:51;8.37;;;1.93;;
2872;SDS011;1444;49.166;7.312;2022-09-12T11:41:28;5.90;;;1.90;;
2872;SDS011;1444;49.166;7.312;2022-09-12T11:43:59;4.30;;;1.53;;
2872;SDS011;1444;49.166;7.312;2022-09-12T11:46:30;15.00;;;2.30;;
2872;SDS011;1444;49.166;7.312;2022-09-12T11:49:03;22.83;;;2.17;;
2872;SDS011;1444;49.166;7.312;2022-09-12T11:51:39;7.70;;;2.13;;
2872;SDS011;1444;49.166;7.312;2022-09-12T11:54:13;3.60;;;1.90;;
2872;SDS011;1444;49.166;7.312;2022-09-12T11:56:47;12.67;;;2.80;;
2872;SDS011;1444;49.166;7.312;2022-09-12T11:59:25;5.93;;;1.83;;
2872;SDS011;1444;49.166;7.312;2022-09-12T12:01:57;9.37;;;2.23;;
2872;SDS011;1444;49.166;7.312;2022-09-12T12:04:27;6.03;;;1.93;;
2872;SDS011;1444;49.166;7.312;2022-09-12T12:07:08;6.70;;;2.37;;
2872;SDS011;1444;49.166;7.312;2022-09-12T12:09:38;4.77;;;1.80;;
2872;SDS011;1444;49.166;7.312;2022-09-12T12:12:12;9.83;;;2.43;;
2872;SDS011;1444;49.166;7.312;2022-09-12T12:14:44;2.30;;;1.97;;
2872;SDS011;1444;49.166;7.312;2022-09-12T12:17:14;2.70;;;2.50;;
2872;SDS011;1444;49.166;7.312;2022-09-12T12:19:42;8.13;;;2.20;;
2872;SDS011;1444;49.166;7.312;2022-09-12T12:22:13;3.17;;;1.80;;
2872;SDS011;1444;49.166;7.312;2022-09-12T12:25:00;30.70;;;3.10;;
2872;SDS011;1444;49.166;7.312;2022-09-12T12:27:46;7.03;;;2.17;;
2872;SDS011;1444;49.166;7.312;2022-09-12T12:33:06;15.13;;;2.73;;
2872;SDS011;1444;49.166;7.312;2022-09-12T12:36:01;6.90;;;2.43;;
2872;SDS011;1444;49.166;7.312;2022-09-12T12:38:32;10.03;;;2.07;;
2872;SDS011;1444;49.166;7.312;2022-09-12T12:44:01;12.07;;;1.87;;
2872;SDS011;1444;49.166;7.312;2022-09-12T12:47:12;9.10;;;2.13;;
2872;SDS011;1444;49.166;7.312;2022-09-12T12:49:47;5.10;;;1.77;;
2872;SDS011;1444;49.166;7.312;2022-09-12T12:52:16;6.10;;;1.70;;
2872;SDS011;1444;49.166;7.312;2022-09-12T12:54:48;6.20;;;1.67;;
2872;SDS011;1444;49.166;7.312;2022-09-12T12:57:30;13.17;;;2.30;;
2872;SDS011;1444;49.166;7.312;2022-09-12T13:00:26;5.60;;;1.93;;
2872;SDS011;1444;49.166;7.312;2022-09-12T13:02:56;5.47;;;2.00;;
2872;SDS011;1444;49.166;7.312;2022-09-12T13:05:26;10.10;;;2.27;;
2872;SDS011;1444;49.166;7.312;2022-09-12T13:07:55;10.33;;;2.80;;
2872;SDS011;1444;49.166;7.312;2022-09-12T13:10:27;2.50;;;1.70;;
2872;SDS011;1444;49.166;7.312;2022-09-12T13:12:56;11.90;;;2.07;;
2872;SDS011;1444;49.166;7.312;2022-09-12T13:18:12;7.53;;;1.87;;
2872;SDS011;1444;49.166;7.312;2022-09-12T13:20:44;5.50;;;2.33;;
2872;SDS011;1444;49.166;7.312;2022-09-12T13:23:20;5.50;;;2.37;;
2872;SDS011;1444;49.166;7.312;2022-09-12T13:25:50;4.30;;;1.97;;
2872;SDS011;1444;49.166;7.312;2022-09-12T13:28:18;1.90;;;1.47;;
2872;SDS011;1444;49.166;7.312;2022-09-12T13:30:45;2.87;;;1.40;;
2872;SDS011;1444;49.166;7.312;2022-09-12T13:39:04;10.07;;;2.30;;
2872;SDS011;1444;49.166;7.312;2022-09-12T13:44:52;3.00;;;1.47;;
2872;SDS011;1444;49.166;7.312;2022-09-12T13:47:24;2.07;;;1.80;;
2872;SDS011;1444;49.166;7.312;2022-09-12T13:49:56;9.47;;;2.13;;
2872;SDS011;1444;49.166;7.312;2022-09-12T13:52:23;3.07;;;1.83;;
2872;SDS011;1444;49.166;7.312;2022-09-12T13:54:53;4.00;;;1.67;;
2872;SDS011;1444;49.166;7.312;2022-09-12T13:57:27;5.10;;;1.83;;
2872;SDS011;1444;49.166;7.312;2022-09-12T13:59:55;5.03;;;1.70;;
2872;SDS011;1444;49.166;7.312;2022-09-12T14:02:24;8.33;;;1.87;;
2872;SDS011;1444;49.166;7.312;2022-09-12T14:04:53;5.83;;;1.70;;
2872;SDS011;1444;49.166;7.312;2022-09-12T14:07:36;2.20;;;1.80;;
2872;SDS011;1444;49.166;7.312;2022-09-12T14:10:16;6.10;;;2.20;;
2872;SDS011;1444;49.166;7.312;2022-09-12T14:12:47;3.67;;;2.00;;
2872;SDS011;1444;49.166;7.312;2022-09-12T14:15:18;4.47;;;2.07;;
2872;SDS011;1444;49.166;7.312;2022-09-12T14:17:50;3.00;;;1.70;;
2872;SDS011;1444;49.166;7.312;2022-09-12T14:20:19;7.70;;;1.97;;
2872;SDS011;1444;49.166;7.312;2022-09-12T14:22:48;2.33;;;2.13;;
2872;SDS011;1444;49.166;7.312;2022-09-12T14:25:16;4.13;;;1.80;;
2872;SDS011;1444;49.166;7.312;2022-09-12T14:27:46;3.03;;;2.00;;
2872;SDS011;1444;49.166;7.312;2022-09-12T14:30:21;8.03;;;1.97;;
2872;SDS011;1444;49.166;7.312;2022-09-12T14:33:03;7.40;;;2.13;;
2872;SDS011;1444;49.166;7.312;2022-09-12T14:35:31;3.00;;;2.03;;
2872;SDS011;1444;49.166;7.312;2022-09-12T14:38:05;10.03;;;2.80;;
2872;SDS011;1444;49.166;7.312;2022-09-12T14:40:39;2.53;;;2.10;;
2872;SDS011;1444;49.166;7.312;2022-09-12T14:43:15;2.33;;;2.13;;
2872;SDS011;1444;49.166;7.312;2022-09-12T14:45:50;7.07;;;2.00;;
2872;SDS011;1444;49.166;7.312;2022-09-12T14:48:19;3.10;;;1.80;;
2872;SDS011;1444;49.166;7.312;2022-09-12T14:50:47;12.67;;;2.80;;
2872;SDS011;1444;49.166;7.312;2022-09-12T14:53:24;5.40;;;1.97;;
2872;SDS011;1444;49.166;7.312;2022-09-12T14:55:57;9.50;;;2.43;;
2872;SDS011;1444;49.166;7.312;2022-09-12T14:58:30;4.10;;;1.80;;
2872;SDS011;1444;49.166;7.312;2022-09-12T15:00:58;3.10;;;1.90;;
2872;SDS011;1444;49.166;7.312;2022-09-12T15:03:28;3.00;;;1.63;;
2872;SDS011;1444;49.166;7.312;2022-09-12T15:05:56;3.50;;;1.67;;
2872;SDS011;1444;49.166;7.312;2022-09-12T15:08:25;2.97;;;1.87;;
2872;SDS011;1444;49.166;7.312;2022-09-12T15:10:52;5.20;;;2.03;;
2872;SDS011;1444;49.166;7.312;2022-09-12T15:13:20;1.97;;;1.77;;
2872;SDS011;1444;49.166;7.312;2022-09-12T15:15:49;2.83;;;2.07;;
2872;SDS011;1444;49.166;7.312;2022-09-12T15:18:16;2.70;;;2.03;;
2872;SDS011;1444;49.166;7.312;2022-09-12T15:20:45;2.17;;;1.93;;
2872;SDS011;1444;49.166;7.312;2022-09-12T15:23:14;20.43;;;2.90;;
2872;SDS011;1444;49.166;7.312;2022-09-12T15:25:47;3.20;;;1.73;;
2872;SDS011;1444;49.166;7.312;2022-09-12T15:28:16;2.50;;;2.30;;
2872;SDS011;1444;49.166;7.312;2022-09-12T15:30:45;3.80;;;2.30;;
2872;SDS011;1444;49.166;7.312;2022-09-12T15:33:13;4.87;;;2.00;;
2872;SDS011;1444;49.166;7.312;2022-09-12T15:35:40;2.30;;;1.87;;
2872;SDS011;1444;49.166;7.312;2022-09-12T15:38:07;3.90;;;2.23;;
2872;SDS011;1444;49.166;7.312;2022-09-12T15:40:34;2.23;;;1.80;;
2872;SDS011;1444;49.166;7.312;2022-09-12T15:43:02;4.43;;;1.93;;
2872;SDS011;1444;49.166;7.312;2022-09-12T15:45:29;2.10;;;1.50;;
2872;SDS011;1444;49.166;7.312;2022-09-12T15:47:58;3.40;;;1.77;;
2872;SDS011;1444;49.166;7.312;2022-09-12T15:50:26;6.27;;;2.50;;
2872;SDS011;1444;49.166;7.312;2022-09-12T15:52:53;3.00;;;1.90;;
2872;SDS011;1444;49.166;7.312;2022-09-12T15:55:21;4.27;;;2.00;;
2872;SDS011;1444;49.166;7.312;2022-09-12T15:57:49;5.13;;;2.37;;